sensor_id;sensor_type;location;lat;lon;timestamp;P1;durP1;ratioP1;P2;durP2;ratioP2
22673;SDS011;11504;43.334;21.918;2022-12-05T00:02:06;11.0;;;10.0;;
22673;SDS011;11504;43.334;21.918;2022-12-05T00:06:43;11.0;;;10.0;;
22673;SDS011;11504;43.334;21.918;2022-12-05T00:11:24;11.0;;;10.0;;
22673;SDS011;11504;43.334;21.918;2022-12-05T00:16:09;11.0;;;10.0;;
22673;SDS011;11504;43.334;21.918;2022-12-05T00:20:48;11.0;;;10.0;;
22673;SDS011;11504;43.334;21.918;2022-12-05T00:25:24;10.0;;;10.0;;
22673;SDS011;11504;43.334;21.918;2022-12-05T00:30:00;10.0;;;10.0;;
22673;SDS011;11504;43.334;21.918;2022-12-05T00:34:37;10.0;;;10.0;;
22673;SDS011;11504;43.334;21.918;2022-12-05T00:39:13;10.0;;;10.0;;
22673;SDS011;11504;43.334;21.918;2022-12-05T00:43:50;10.0;;;10.0;;
22673;SDS011;11504;43.334;21.918;2022-12-05T00:48:28;10.0;;;10.0;;
22673;SDS011;11504;43.334;21.918;2022-12-05T00:53:07;10.0;;;10.0;;
22673;SDS011;11504;43.334;21.918;2022-12-05T00:57:43;10.0;;;10.0;;
22673;SDS011;11504;43.334;21.918;2022-12-05T01:02:19;10.0;;;10.0;;
22673;SDS011;11504;43.334;21.918;2022-12-05T01:06:57;10.0;;;10.0;;
22673;SDS011;11504;43.334;21.918;2022-12-05T01:11:34;10.0;;;10.0;;
22673;SDS011;11504;43.334;21.918;2022-12-05T01:16:14;10.0;;;9.0;;
22673;SDS011;11504;43.334;21.918;2022-12-05T01:20:56;10.0;;;9.0;;
22673;SDS011;11504;43.334;21.918;2022-12-05T01:25:34;10.0;;;8.0;;
22673;SDS011;11504;43.334;21.918;2022-12-05T01:30:14;10.0;;;8.0;;
22673;SDS011;11504;43.334;21.918;2022-12-05T01:34:51;9.0;;;8.0;;
22673;SDS011;11504;43.334;21.918;2022-12-05T01:39:27;9.0;;;8.0;;
22673;SDS011;11504;43.334;21.918;2022-12-05T01:44:05;9.0;;;8.0;;
22673;SDS011;11504;43.334;21.918;2022-12-05T01:48:42;10.0;;;9.0;;
22673;SDS011;11504;43.334;21.918;2022-12-05T01:53:19;10.0;;;9.0;;
22673;SDS011;11504;43.334;21.918;2022-12-05T01:57:57;10.0;;;10.0;;
22673;SDS011;11504;43.334;21.918;2022-12-05T02:02:35;10.0;;;10.0;;
22673;SDS011;11504;43.334;21.918;2022-12-05T02:07:11;10.0;;;10.0;;
22673;SDS011;11504;43.334;21.918;2022-12-05T02:11:52;10.0;;;10.0;;
22673;SDS011;11504;43.334;21.918;2022-12-05T02:16:46;9.0;;;9.0;;
22673;SDS011;11504;43.334;21.918;2022-12-05T02:22:04;9.0;;;9.0;;
22673;SDS011;11504;43.334;21.918;2022-12-05T02:27:38;9.0;;;9.0;;
22673;SDS011;11504;43.334;21.918;2022-12-05T02:32:59;9.0;;;9.0;;
22673;SDS011;11504;43.334;21.918;2022-12-05T02:37:58;9.0;;;9.0;;
22673;SDS011;11504;43.334;21.918;2022-12-05T02:43:02;9.0;;;9.0;;
22673;SDS011;11504;43.334;21.918;2022-12-05T02:47:53;8.0;;;8.0;;
22673;SDS011;11504;43.334;21.918;2022-12-05T02:52:33;8.0;;;8.0;;
22673;SDS011;11504;43.334;21.918;2022-12-05T02:57:12;7.0;;;7.0;;
22673;SDS011;11504;43.334;21.918;2022-12-05T03:01:50;7.0;;;7.0;;
22673;SDS011;11504;43.334;21.918;2022-12-05T03:06:31;8.0;;;8.0;;
22673;SDS011;11504;43.334;21.918;2022-12-05T03:11:15;8.0;;;8.0;;
22673;SDS011;11504;43.334;21.918;2022-12-05T03:15:57;8.0;;;8.0;;
22673;SDS011;11504;43.334;21.918;2022-12-05T03:20:46;8.0;;;8.0;;
22673;SDS011;11504;43.334;21.918;2022-12-05T03:25:47;8.0;;;8.0;;
22673;SDS011;11504;43.334;21.918;2022-12-05T03:30:51;8.0;;;8.0;;
22673;SDS011;11504;43.334;21.918;2022-12-05T03:35:42;8.0;;;7.0;;
22673;SDS011;11504;43.334;21.918;2022-12-05T03:40:48;8.0;;;7.0;;
22673;SDS011;11504;43.334;21.918;2022-12-05T03:46:02;8.0;;;8.0;;
22673;SDS011;11504;43.334;21.918;2022-12-05T03:50:54;8.0;;;8.0;;
22673;SDS011;11504;43.334;21.918;2022-12-05T03:55:40;9.0;;;8.0;;
22673;SDS011;11504;43.334;21.918;2022-12-05T04:00:38;9.0;;;8.0;;
22673;SDS011;11504;43.334;21.918;2022-12-05T04:05:32;8.0;;;8.0;;
22673;SDS011;11504;43.334;21.918;2022-12-05T04:10:29;8.0;;;8.0;;
22673;SDS011;11504;43.334;21.918;2022-12-05T04:15:18;7.0;;;7.0;;
22673;SDS011;11504;43.334;21.918;2022-12-05T04:20:02;7.0;;;7.0;;
22673;SDS011;11504;43.334;21.918;2022-12-05T04:24:44;8.0;;;8.0;;
22673;SDS011;11504;43.334;21.918;2022-12-05T04:29:27;8.0;;;8.0;;
22673;SDS011;11504;43.334;21.918;2022-12-05T04:34:13;8.0;;;8.0;;
22673;SDS011;11504;43.334;21.918;2022-12-05T04:38:57;8.0;;;8.0;;
22673;SDS011;11504;43.334;21.918;2022-12-05T04:43:40;8.0;;;8.0;;
22673;SDS011;11504;43.334;21.918;2022-12-05T04:48:18;9.0;;;8.0;;
22673;SDS011;11504;43.334;21.918;2022-12-05T04:52:59;9.0;;;8.0;;
22673;SDS011;11504;43.334;21.918;2022-12-05T04:57:43;10.0;;;9.0;;
22673;SDS011;11504;43.334;21.918;2022-12-05T05:02:29;10.0;;;9.0;;
22673;SDS011;11504;43.334;21.918;2022-12-05T05:07:11;11.0;;;10.0;;
22673;SDS011;11504;43.334;21.918;2022-12-05T05:11:49;11.0;;;10.0;;
22673;SDS011;11504;43.334;21.918;2022-12-05T05:16:31;12.0;;;11.0;;
22673;SDS011;11504;43.334;21.918;2022-12-05T05:21:16;12.0;;;11.0;;
22673;SDS011;11504;43.334;21.918;2022-12-05T05:25:56;12.0;;;12.0;;
22673;SDS011;11504;43.334;21.918;2022-12-05T05:30:32;12.0;;;12.0;;
22673;SDS011;11504;43.334;21.918;2022-12-05T05:35:09;13.0;;;13.0;;
22673;SDS011;11504;43.334;21.918;2022-12-05T05:39:46;13.0;;;13.0;;
22673;SDS011;11504;43.334;21.918;2022-12-05T05:44:21;13.0;;;13.0;;
22673;SDS011;11504;43.334;21.918;2022-12-05T05:48:58;12.0;;;12.0;;
22673;SDS011;11504;43.334;21.918;2022-12-05T05:53:35;12.0;;;12.0;;
22673;SDS011;11504;43.334;21.918;2022-12-05T05:58:12;11.0;;;11.0;;
22673;SDS011;11504;43.334;21.918;2022-12-05T06:02:48;11.0;;;11.0;;
22673;SDS011;11504;43.334;21.918;2022-12-05T06:07:24;12.0;;;12.0;;
22673;SDS011;11504;43.334;21.918;2022-12-05T06:12:01;12.0;;;12.0;;
22673;SDS011;11504;43.334;21.918;2022-12-05T06:16:38;13.0;;;12.0;;
22673;SDS011;11504;43.334;21.918;2022-12-05T06:21:14;13.0;;;12.0;;
22673;SDS011;11504;43.334;21.918;2022-12-05T06:25:54;12.0;;;12.0;;
22673;SDS011;11504;43.334;21.918;2022-12-05T06:30:32;12.0;;;12.0;;
22673;SDS011;11504;43.334;21.918;2022-12-05T06:35:08;12.0;;;11.0;;
22673;SDS011;11504;43.334;21.918;2022-12-05T06:39:44;12.0;;;11.0;;
22673;SDS011;11504;43.334;21.918;2022-12-05T06:44:21;12.0;;;11.0;;
22673;SDS011;11504;43.334;21.918;2022-12-05T06:48:58;11.0;;;10.0;;
22673;SDS011;11504;43.334;21.918;2022-12-05T06:53:34;11.0;;;10.0;;
22673;SDS011;11504;43.334;21.918;2022-12-05T06:58:11;10.0;;;10.0;;
22673;SDS011;11504;43.334;21.918;2022-12-05T07:02:49;10.0;;;10.0;;
22673;SDS011;11504;43.334;21.918;2022-12-05T07:07:25;12.0;;;12.0;;
22673;SDS011;11504;43.334;21.918;2022-12-05T07:12:00;12.0;;;12.0;;
22673;SDS011;11504;43.334;21.918;2022-12-05T07:16:36;14.0;;;14.0;;
22673;SDS011;11504;43.334;21.918;2022-12-05T07:21:13;14.0;;;14.0;;
22673;SDS011;11504;43.334;21.918;2022-12-05T07:25:50;12.0;;;12.0;;
22673;SDS011;11504;43.334;21.918;2022-12-05T07:30:26;12.0;;;12.0;;
22673;SDS011;11504;43.334;21.918;2022-12-05T07:35:02;10.0;;;10.0;;
22673;SDS011;11504;43.334;21.918;2022-12-05T07:39:38;10.0;;;10.0;;
22673;SDS011;11504;43.334;21.918;2022-12-05T07:44:14;10.0;;;10.0;;
22673;SDS011;11504;43.334;21.918;2022-12-05T07:48:50;12.0;;;10.0;;
22673;SDS011;11504;43.334;21.918;2022-12-05T07:53:27;12.0;;;10.0;;
22673;SDS011;11504;43.334;21.918;2022-12-05T07:58:05;13.0;;;10.0;;
22673;SDS011;11504;43.334;21.918;2022-12-05T08:02:41;13.0;;;10.0;;
22673;SDS011;11504;43.334;21.918;2022-12-05T08:07:17;13.0;;;11.0;;
22673;SDS011;11504;43.334;21.918;2022-12-05T08:11:53;13.0;;;11.0;;
22673;SDS011;11504;43.334;21.918;2022-12-05T08:16:30;13.0;;;12.0;;
22673;SDS011;11504;43.334;21.918;2022-12-05T08:21:08;13.0;;;12.0;;
22673;SDS011;11504;43.334;21.918;2022-12-05T08:25:50;12.0;;;12.0;;
22673;SDS011;11504;43.334;21.918;2022-12-05T08:30:26;12.0;;;12.0;;
22673;SDS011;11504;43.334;21.918;2022-12-05T08:35:02;12.0;;;12.0;;
22673;SDS011;11504;43.334;21.918;2022-12-05T08:39:40;12.0;;;12.0;;
22673;SDS011;11504;43.334;21.918;2022-12-05T08:44:16;12.0;;;12.0;;
22673;SDS011;11504;43.334;21.918;2022-12-05T08:48:53;13.0;;;12.0;;
22673;SDS011;11504;43.334;21.918;2022-12-05T08:53:29;13.0;;;12.0;;
22673;SDS011;11504;43.334;21.918;2022-12-05T08:58:06;14.0;;;13.0;;
22673;SDS011;11504;43.334;21.918;2022-12-05T09:02:43;14.0;;;13.0;;
22673;SDS011;11504;43.334;21.918;2022-12-05T09:07:25;14.0;;;14.0;;
22673;SDS011;11504;43.334;21.918;2022-12-05T09:12:01;14.0;;;14.0;;
22673;SDS011;11504;43.334;21.918;2022-12-05T09:16:38;14.0;;;14.0;;
22673;SDS011;11504;43.334;21.918;2022-12-05T09:21:20;14.0;;;14.0;;
22673;SDS011;11504;43.334;21.918;2022-12-05T09:26:06;14.0;;;13.0;;
22673;SDS011;11504;43.334;21.918;2022-12-05T09:30:54;14.0;;;13.0;;
22673;SDS011;11504;43.334;21.918;2022-12-05T09:35:33;13.0;;;12.0;;
22673;SDS011;11504;43.334;21.918;2022-12-05T09:40:14;13.0;;;12.0;;
22673;SDS011;11504;43.334;21.918;2022-12-05T09:44:55;13.0;;;12.0;;
22673;SDS011;11504;43.334;21.918;2022-12-05T09:49:46;13.0;;;12.0;;
22673;SDS011;11504;43.334;21.918;2022-12-05T09:54:30;13.0;;;12.0;;
22673;SDS011;11504;43.334;21.918;2022-12-05T09:59:08;13.0;;;13.0;;
22673;SDS011;11504;43.334;21.918;2022-12-05T10:04:01;13.0;;;13.0;;
22673;SDS011;11504;43.334;21.918;2022-12-05T10:09:03;14.0;;;14.0;;
22673;SDS011;11504;43.334;21.918;2022-12-05T10:14:07;14.0;;;14.0;;
22673;SDS011;11504;43.334;21.918;2022-12-05T10:18:58;14.0;;;14.0;;
22673;SDS011;11504;43.334;21.918;2022-12-05T10:23:50;14.0;;;14.0;;
22673;SDS011;11504;43.334;21.918;2022-12-05T10:28:36;14.0;;;14.0;;
22673;SDS011;11504;43.334;21.918;2022-12-05T10:33:32;14.0;;;14.0;;
22673;SDS011;11504;43.334;21.918;2022-12-05T10:38:22;14.0;;;13.0;;
22673;SDS011;11504;43.334;21.918;2022-12-05T10:43:04;14.0;;;13.0;;
22673;SDS011;11504;43.334;21.918;2022-12-05T10:47:48;13.0;;;12.0;;
22673;SDS011;11504;43.334;21.918;2022-12-05T10:52:29;13.0;;;12.0;;
22673;SDS011;11504;43.334;21.918;2022-12-05T10:57:19;12.0;;;12.0;;
22673;SDS011;11504;43.334;21.918;2022-12-05T11:01:58;12.0;;;12.0;;
22673;SDS011;11504;43.334;21.918;2022-12-05T11:06:34;13.0;;;12.0;;
22673;SDS011;11504;43.334;21.918;2022-12-05T11:11:17;13.0;;;12.0;;
22673;SDS011;11504;43.334;21.918;2022-12-05T11:16:00;14.0;;;13.0;;
22673;SDS011;11504;43.334;21.918;2022-12-05T11:20:38;14.0;;;13.0;;
22673;SDS011;11504;43.334;21.918;2022-12-05T11:25:22;14.0;;;12.0;;
22673;SDS011;11504;43.334;21.918;2022-12-05T11:30:14;14.0;;;12.0;;
22673;SDS011;11504;43.334;21.918;2022-12-05T11:35:00;14.0;;;12.0;;
22673;SDS011;11504;43.334;21.918;2022-12-05T11:40:00;13.0;;;12.0;;
22673;SDS011;11504;43.334;21.918;2022-12-05T11:44:55;13.0;;;12.0;;
22673;SDS011;11504;43.334;21.918;2022-12-05T11:50:30;13.0;;;12.0;;
22673;SDS011;11504;43.334;21.918;2022-12-05T11:55:58;13.0;;;12.0;;
22673;SDS011;11504;43.334;21.918;2022-12-05T12:01:14;13.0;;;12.0;;
22673;SDS011;11504;43.334;21.918;2022-12-05T12:06:41;13.0;;;12.0;;
22673;SDS011;11504;43.334;21.918;2022-12-05T12:12:11;13.0;;;12.0;;
22673;SDS011;11504;43.334;21.918;2022-12-05T12:17:11;13.0;;;12.0;;
22673;SDS011;11504;43.334;21.918;2022-12-05T12:22:04;13.0;;;12.0;;
22673;SDS011;11504;43.334;21.918;2022-12-05T12:27:12;12.0;;;12.0;;
22673;SDS011;11504;43.334;21.918;2022-12-05T12:32:08;12.0;;;12.0;;
22673;SDS011;11504;43.334;21.918;2022-12-05T12:37:04;12.0;;;11.0;;
22673;SDS011;11504;43.334;21.918;2022-12-05T12:42:03;12.0;;;11.0;;
22673;SDS011;11504;43.334;21.918;2022-12-05T12:46:58;11.0;;;10.0;;
22673;SDS011;11504;43.334;21.918;2022-12-05T12:51:43;11.0;;;10.0;;
22673;SDS011;11504;43.334;21.918;2022-12-05T12:56:38;10.0;;;10.0;;
22673;SDS011;11504;43.334;21.918;2022-12-05T13:01:41;10.0;;;10.0;;
22673;SDS011;11504;43.334;21.918;2022-12-05T13:06:36;10.0;;;10.0;;
22673;SDS011;11504;43.334;21.918;2022-12-05T13:11:26;10.0;;;10.0;;
22673;SDS011;11504;43.334;21.918;2022-12-05T13:16:18;10.0;;;10.0;;
22673;SDS011;11504;43.334;21.918;2022-12-05T13:21:08;10.0;;;10.0;;
22673;SDS011;11504;43.334;21.918;2022-12-05T13:25:45;10.0;;;10.0;;
22673;SDS011;11504;43.334;21.918;2022-12-05T13:30:25;10.0;;;10.0;;
22673;SDS011;11504;43.334;21.918;2022-12-05T13:35:07;10.0;;;10.0;;
22673;SDS011;11504;43.334;21.918;2022-12-05T13:39:54;11.0;;;11.0;;
22673;SDS011;11504;43.334;21.918;2022-12-05T13:44:37;11.0;;;11.0;;
22673;SDS011;11504;43.334;21.918;2022-12-05T13:49:24;11.0;;;11.0;;
22673;SDS011;11504;43.334;21.918;2022-12-05T13:54:20;11.0;;;11.0;;
22673;SDS011;11504;43.334;21.918;2022-12-05T13:59:03;11.0;;;11.0;;
22673;SDS011;11504;43.334;21.918;2022-12-05T14:03:54;11.0;;;11.0;;
22673;SDS011;11504;43.334;21.918;2022-12-05T14:14:56;12.0;;;12.0;;
22673;SDS011;11504;43.334;21.918;2022-12-05T14:19:44;14.0;;;13.0;;
22673;SDS011;11504;43.334;21.918;2022-12-05T14:25:09;14.0;;;13.0;;
22673;SDS011;11504;43.334;21.918;2022-12-05T14:30:42;14.0;;;14.0;;
22673;SDS011;11504;43.334;21.918;2022-12-05T14:36:13;15.0;;;14.0;;
22673;SDS011;11504;43.334;21.918;2022-12-05T14:41:10;15.0;;;14.0;;
22673;SDS011;11504;43.334;21.918;2022-12-05T14:46:13;15.0;;;14.0;;
22673;SDS011;11504;43.334;21.918;2022-12-05T14:51:42;15.0;;;14.0;;
22673;SDS011;11504;43.334;21.918;2022-12-05T14:56:31;15.0;;;14.0;;
22673;SDS011;11504;43.334;21.918;2022-12-05T15:01:21;15.0;;;14.0;;
22673;SDS011;11504;43.334;21.918;2022-12-05T15:06:02;14.0;;;14.0;;
22673;SDS011;11504;43.334;21.918;2022-12-05T15:10:45;14.0;;;14.0;;
22673;SDS011;11504;43.334;21.918;2022-12-05T15:15:28;14.0;;;13.0;;
22673;SDS011;11504;43.334;21.918;2022-12-05T15:20:16;14.0;;;13.0;;
22673;SDS011;11504;43.334;21.918;2022-12-05T15:25:14;14.0;;;13.0;;
22673;SDS011;11504;43.334;21.918;2022-12-05T15:30:00;14.0;;;13.0;;
22673;SDS011;11504;43.334;21.918;2022-12-05T15:34:38;14.0;;;13.0;;
22673;SDS011;11504;43.334;21.918;2022-12-05T15:39:28;14.0;;;13.0;;
22673;SDS011;11504;43.334;21.918;2022-12-05T15:44:27;14.0;;;13.0;;
22673;SDS011;11504;43.334;21.918;2022-12-05T15:49:14;14.0;;;14.0;;
22673;SDS011;11504;43.334;21.918;2022-12-05T15:53:58;14.0;;;14.0;;
22673;SDS011;11504;43.334;21.918;2022-12-05T15:58:52;14.0;;;14.0;;
22673;SDS011;11504;43.334;21.918;2022-12-05T16:03:42;14.0;;;14.0;;
22673;SDS011;11504;43.334;21.918;2022-12-05T16:08:31;13.0;;;12.0;;
22673;SDS011;11504;43.334;21.918;2022-12-05T16:13:10;13.0;;;12.0;;
22673;SDS011;11504;43.334;21.918;2022-12-05T16:17:57;12.0;;;11.0;;
22673;SDS011;11504;43.334;21.918;2022-12-05T16:22:36;12.0;;;11.0;;
22673;SDS011;11504;43.334;21.918;2022-12-05T16:27:23;14.0;;;12.0;;
22673;SDS011;11504;43.334;21.918;2022-12-05T16:32:13;14.0;;;12.0;;
22673;SDS011;11504;43.334;21.918;2022-12-05T16:37:00;15.0;;;14.0;;
22673;SDS011;11504;43.334;21.918;2022-12-05T16:41:36;15.0;;;14.0;;
22673;SDS011;11504;43.334;21.918;2022-12-05T16:46:39;14.0;;;13.0;;
22673;SDS011;11504;43.334;21.918;2022-12-05T16:51:21;14.0;;;13.0;;
22673;SDS011;11504;43.334;21.918;2022-12-05T16:55:58;13.0;;;12.0;;
22673;SDS011;11504;43.334;21.918;2022-12-05T17:00:35;13.0;;;12.0;;
22673;SDS011;11504;43.334;21.918;2022-12-05T17:05:12;13.0;;;12.0;;
22673;SDS011;11504;43.334;21.918;2022-12-05T17:09:50;14.0;;;14.0;;
22673;SDS011;11504;43.334;21.918;2022-12-05T17:14:26;14.0;;;14.0;;
22673;SDS011;11504;43.334;21.918;2022-12-05T17:19:02;16.0;;;15.0;;
22673;SDS011;11504;43.334;21.918;2022-12-05T17:23:39;16.0;;;15.0;;
22673;SDS011;11504;43.334;21.918;2022-12-05T17:28:15;14.0;;;14.0;;
22673;SDS011;11504;43.334;21.918;2022-12-05T17:32:52;14.0;;;14.0;;
22673;SDS011;11504;43.334;21.918;2022-12-05T17:37:28;13.0;;;13.0;;
22673;SDS011;11504;43.334;21.918;2022-12-05T17:42:04;13.0;;;13.0;;
22673;SDS011;11504;43.334;21.918;2022-12-05T17:46:40;14.0;;;14.0;;
22673;SDS011;11504;43.334;21.918;2022-12-05T17:51:17;14.0;;;14.0;;
22673;SDS011;11504;43.334;21.918;2022-12-05T17:55:54;15.0;;;14.0;;
22673;SDS011;11504;43.334;21.918;2022-12-05T18:00:30;15.0;;;14.0;;
22673;SDS011;11504;43.334;21.918;2022-12-05T18:05:06;15.0;;;14.0;;
22673;SDS011;11504;43.334;21.918;2022-12-05T18:09:44;14.0;;;12.0;;
22673;SDS011;11504;43.334;21.918;2022-12-05T18:14:19;14.0;;;12.0;;
22673;SDS011;11504;43.334;21.918;2022-12-05T18:18:55;14.0;;;11.0;;
22673;SDS011;11504;43.334;21.918;2022-12-05T18:23:33;14.0;;;11.0;;
22673;SDS011;11504;43.334;21.918;2022-12-05T18:28:11;14.0;;;12.0;;
22673;SDS011;11504;43.334;21.918;2022-12-05T18:32:47;14.0;;;12.0;;
22673;SDS011;11504;43.334;21.918;2022-12-05T18:37:23;13.0;;;12.0;;
22673;SDS011;11504;43.334;21.918;2022-12-05T18:42:00;13.0;;;12.0;;
22673;SDS011;11504;43.334;21.918;2022-12-05T18:46:36;14.0;;;13.0;;
22673;SDS011;11504;43.334;21.918;2022-12-05T18:51:13;14.0;;;13.0;;
22673;SDS011;11504;43.334;21.918;2022-12-05T18:56:01;15.0;;;14.0;;
22673;SDS011;11504;43.334;21.918;2022-12-05T19:00:41;15.0;;;14.0;;
22673;SDS011;11504;43.334;21.918;2022-12-05T19:05:17;15.0;;;14.0;;
22673;SDS011;11504;43.334;21.918;2022-12-05T19:09:53;14.0;;;13.0;;
22673;SDS011;11504;43.334;21.918;2022-12-05T19:14:29;14.0;;;13.0;;
22673;SDS011;11504;43.334;21.918;2022-12-05T19:19:06;12.0;;;12.0;;
22673;SDS011;11504;43.334;21.918;2022-12-05T19:23:48;12.0;;;12.0;;
22673;SDS011;11504;43.334;21.918;2022-12-05T19:28:25;12.0;;;12.0;;
22673;SDS011;11504;43.334;21.918;2022-12-05T19:33:01;12.0;;;12.0;;
22673;SDS011;11504;43.334;21.918;2022-12-05T19:37:38;13.0;;;12.0;;
22673;SDS011;11504;43.334;21.918;2022-12-05T19:42:14;13.0;;;12.0;;
22673;SDS011;11504;43.334;21.918;2022-12-05T19:46:50;12.0;;;11.0;;
22673;SDS011;11504;43.334;21.918;2022-12-05T19:51:27;12.0;;;11.0;;
22673;SDS011;11504;43.334;21.918;2022-12-05T19:56:13;11.0;;;10.0;;
22673;SDS011;11504;43.334;21.918;2022-12-05T20:00:56;11.0;;;10.0;;
22673;SDS011;11504;43.334;21.918;2022-12-05T20:05:54;11.0;;;10.0;;
22673;SDS011;11504;43.334;21.918;2022-12-05T20:10:33;11.0;;;10.0;;
22673;SDS011;11504;43.334;21.918;2022-12-05T20:15:10;11.0;;;10.0;;
22673;SDS011;11504;43.334;21.918;2022-12-05T20:19:46;11.0;;;10.0;;
22673;SDS011;11504;43.334;21.918;2022-12-05T20:24:22;11.0;;;10.0;;
22673;SDS011;11504;43.334;21.918;2022-12-05T20:28:58;12.0;;;10.0;;
22673;SDS011;11504;43.334;21.918;2022-12-05T20:33:35;12.0;;;10.0;;
22673;SDS011;11504;43.334;21.918;2022-12-05T20:38:12;12.0;;;11.0;;
22673;SDS011;11504;43.334;21.918;2022-12-05T20:42:48;12.0;;;11.0;;
22673;SDS011;11504;43.334;21.918;2022-12-05T20:47:23;13.0;;;12.0;;
22673;SDS011;11504;43.334;21.918;2022-12-05T20:51:59;13.0;;;12.0;;
22673;SDS011;11504;43.334;21.918;2022-12-05T20:56:35;14.0;;;14.0;;
22673;SDS011;11504;43.334;21.918;2022-12-05T21:01:11;14.0;;;14.0;;
22673;SDS011;11504;43.334;21.918;2022-12-05T21:05:51;16.0;;;16.0;;
22673;SDS011;11504;43.334;21.918;2022-12-05T21:10:27;16.0;;;16.0;;
22673;SDS011;11504;43.334;21.918;2022-12-05T21:15:03;16.0;;;16.0;;
22673;SDS011;11504;43.334;21.918;2022-12-05T21:19:42;19.0;;;18.0;;
22673;SDS011;11504;43.334;21.918;2022-12-05T21:24:18;19.0;;;18.0;;
22673;SDS011;11504;43.334;21.918;2022-12-05T21:28:56;20.0;;;19.0;;
22673;SDS011;11504;43.334;21.918;2022-12-05T21:33:36;20.0;;;19.0;;
22673;SDS011;11504;43.334;21.918;2022-12-05T21:38:15;21.0;;;20.0;;
22673;SDS011;11504;43.334;21.918;2022-12-05T21:42:51;21.0;;;20.0;;
22673;SDS011;11504;43.334;21.918;2022-12-05T21:47:27;20.0;;;19.0;;
22673;SDS011;11504;43.334;21.918;2022-12-05T21:52:05;20.0;;;19.0;;
22673;SDS011;11504;43.334;21.918;2022-12-05T21:56:41;18.0;;;18.0;;
22673;SDS011;11504;43.334;21.918;2022-12-05T22:01:17;18.0;;;18.0;;
22673;SDS011;11504;43.334;21.918;2022-12-05T22:05:59;18.0;;;18.0;;
22673;SDS011;11504;43.334;21.918;2022-12-05T22:10:38;18.0;;;18.0;;
22673;SDS011;11504;43.334;21.918;2022-12-05T22:15:14;18.0;;;18.0;;
22673;SDS011;11504;43.334;21.918;2022-12-05T22:19:51;18.0;;;17.0;;
22673;SDS011;11504;43.334;21.918;2022-12-05T22:24:27;18.0;;;17.0;;
22673;SDS011;11504;43.334;21.918;2022-12-05T22:29:03;17.0;;;16.0;;
22673;SDS011;11504;43.334;21.918;2022-12-05T22:33:40;17.0;;;16.0;;
22673;SDS011;11504;43.334;21.918;2022-12-05T22:38:18;16.0;;;15.0;;
22673;SDS011;11504;43.334;21.918;2022-12-05T22:42:55;16.0;;;15.0;;
22673;SDS011;11504;43.334;21.918;2022-12-05T22:47:31;18.0;;;17.0;;
22673;SDS011;11504;43.334;21.918;2022-12-05T22:52:07;18.0;;;17.0;;
22673;SDS011;11504;43.334;21.918;2022-12-05T22:56:43;20.0;;;19.0;;
22673;SDS011;11504;43.334;21.918;2022-12-05T23:01:20;20.0;;;19.0;;
22673;SDS011;11504;43.334;21.918;2022-12-05T23:06:01;18.0;;;17.0;;
22673;SDS011;11504;43.334;21.918;2022-12-05T23:10:39;18.0;;;17.0;;
22673;SDS011;11504;43.334;21.918;2022-12-05T23:15:15;18.0;;;17.0;;
22673;SDS011;11504;43.334;21.918;2022-12-05T23:19:51;16.0;;;15.0;;
22673;SDS011;11504;43.334;21.918;2022-12-05T23:24:27;16.0;;;15.0;;
22673;SDS011;11504;43.334;21.918;2022-12-05T23:29:03;16.0;;;15.0;;
22673;SDS011;11504;43.334;21.918;2022-12-05T23:33:39;16.0;;;15.0;;
22673;SDS011;11504;43.334;21.918;2022-12-05T23:38:17;16.0;;;15.0;;
22673;SDS011;11504;43.334;21.918;2022-12-05T23:42:53;16.0;;;15.0;;
22673;SDS011;11504;43.334;21.918;2022-12-05T23:47:29;14.0;;;14.0;;
22673;SDS011;11504;43.334;21.918;2022-12-05T23:52:06;14.0;;;14.0;;
22673;SDS011;11504;43.334;21.918;2022-12-05T23:56:43;13.0;;;12.0;;
